sensor_id;sensor_type;location;lat;lon;timestamp;P1;durP1;ratioP1;P2;durP2;ratioP2
2338;SDS011;1180;51.438;6.978;2023-12-14T00:02:01;24.10;;;14.70;;
2338;SDS011;1180;51.438;6.978;2023-12-14T00:04:27;20.00;;;13.93;;
2338;SDS011;1180;51.438;6.978;2023-12-14T00:06:53;21.23;;;13.60;;
2338;SDS011;1180;51.438;6.978;2023-12-14T00:09:19;24.03;;;14.03;;
2338;SDS011;1180;51.438;6.978;2023-12-14T00:11:44;18.90;;;12.57;;
2338;SDS011;1180;51.438;6.978;2023-12-14T00:14:09;23.07;;;13.63;;
2338;SDS011;1180;51.438;6.978;2023-12-14T00:16:35;19.27;;;13.10;;
2338;SDS011;1180;51.438;6.978;2023-12-14T00:19:00;15.33;;;11.50;;
2338;SDS011;1180;51.438;6.978;2023-12-14T00:21:26;21.70;;;13.20;;
2338;SDS011;1180;51.438;6.978;2023-12-14T00:23:51;17.80;;;11.70;;
2338;SDS011;1180;51.438;6.978;2023-12-14T00:26:17;20.17;;;12.80;;
2338;SDS011;1180;51.438;6.978;2023-12-14T00:28:42;18.97;;;12.87;;
2338;SDS011;1180;51.438;6.978;2023-12-14T00:31:07;16.87;;;11.77;;
2338;SDS011;1180;51.438;6.978;2023-12-14T00:33:33;18.73;;;11.03;;
2338;SDS011;1180;51.438;6.978;2023-12-14T00:35:58;18.33;;;11.17;;
2338;SDS011;1180;51.438;6.978;2023-12-14T00:38:24;16.40;;;10.60;;
2338;SDS011;1180;51.438;6.978;2023-12-14T00:40:49;21.10;;;12.63;;
2338;SDS011;1180;51.438;6.978;2023-12-14T00:43:14;16.83;;;11.03;;
2338;SDS011;1180;51.438;6.978;2023-12-14T00:45:40;14.87;;;11.00;;
2338;SDS011;1180;51.438;6.978;2023-12-14T00:48:08;14.37;;;11.57;;
2338;SDS011;1180;51.438;6.978;2023-12-14T00:50:34;17.83;;;11.33;;
2338;SDS011;1180;51.438;6.978;2023-12-14T00:52:59;14.90;;;10.13;;
2338;SDS011;1180;51.438;6.978;2023-12-14T00:55:24;15.47;;;10.17;;
2338;SDS011;1180;51.438;6.978;2023-12-14T00:57:50;16.37;;;10.90;;
2338;SDS011;1180;51.438;6.978;2023-12-14T01:00:15;16.73;;;11.03;;
2338;SDS011;1180;51.438;6.978;2023-12-14T01:02:41;15.10;;;10.03;;
2338;SDS011;1180;51.438;6.978;2023-12-14T01:05:06;15.07;;;10.20;;
2338;SDS011;1180;51.438;6.978;2023-12-14T01:07:32;13.57;;;10.20;;
2338;SDS011;1180;51.438;6.978;2023-12-14T01:09:57;15.33;;;11.13;;
2338;SDS011;1180;51.438;6.978;2023-12-14T01:12:23;12.57;;;10.63;;
2338;SDS011;1180;51.438;6.978;2023-12-14T01:14:49;12.20;;;9.87;;
2338;SDS011;1180;51.438;6.978;2023-12-14T01:17:15;11.97;;;9.30;;
2338;SDS011;1180;51.438;6.978;2023-12-14T01:19:40;10.90;;;8.77;;
2338;SDS011;1180;51.438;6.978;2023-12-14T01:22:06;9.97;;;8.60;;
2338;SDS011;1180;51.438;6.978;2023-12-14T01:24:32;9.53;;;7.33;;
2338;SDS011;1180;51.438;6.978;2023-12-14T01:26:57;8.70;;;7.30;;
2338;SDS011;1180;51.438;6.978;2023-12-14T01:29:22;7.30;;;6.43;;
2338;SDS011;1180;51.438;6.978;2023-12-14T01:31:47;8.43;;;7.17;;
2338;SDS011;1180;51.438;6.978;2023-12-14T01:34:13;10.60;;;7.80;;
2338;SDS011;1180;51.438;6.978;2023-12-14T01:36:40;7.80;;;7.07;;
2338;SDS011;1180;51.438;6.978;2023-12-14T01:39:06;9.87;;;6.70;;
2338;SDS011;1180;51.438;6.978;2023-12-14T01:41:31;8.90;;;6.30;;
2338;SDS011;1180;51.438;6.978;2023-12-14T01:43:57;8.90;;;7.03;;
2338;SDS011;1180;51.438;6.978;2023-12-14T01:46:22;9.07;;;6.43;;
2338;SDS011;1180;51.438;6.978;2023-12-14T01:48:47;7.93;;;6.30;;
2338;SDS011;1180;51.438;6.978;2023-12-14T01:51:13;9.13;;;7.43;;
2338;SDS011;1180;51.438;6.978;2023-12-14T01:53:38;9.40;;;7.43;;
2338;SDS011;1180;51.438;6.978;2023-12-14T01:56:05;12.33;;;8.33;;
2338;SDS011;1180;51.438;6.978;2023-12-14T01:58:32;10.17;;;8.00;;
2338;SDS011;1180;51.438;6.978;2023-12-14T02:04:05;13.03;;;9.87;;
2338;SDS011;1180;51.438;6.978;2023-12-14T02:06:34;11.10;;;7.97;;
2338;SDS011;1180;51.438;6.978;2023-12-14T02:09:00;11.70;;;8.90;;
2338;SDS011;1180;51.438;6.978;2023-12-14T02:11:26;14.23;;;10.27;;
2338;SDS011;1180;51.438;6.978;2023-12-14T02:13:51;14.23;;;11.50;;
2338;SDS011;1180;51.438;6.978;2023-12-14T02:16:17;18.37;;;11.93;;
2338;SDS011;1180;51.438;6.978;2023-12-14T02:18:42;20.00;;;15.30;;
2338;SDS011;1180;51.438;6.978;2023-12-14T02:21:09;25.50;;;15.87;;
2338;SDS011;1180;51.438;6.978;2023-12-14T02:23:35;31.27;;;17.83;;
2338;SDS011;1180;51.438;6.978;2023-12-14T02:26:00;29.00;;;16.57;;
2338;SDS011;1180;51.438;6.978;2023-12-14T02:28:26;24.77;;;17.73;;
2338;SDS011;1180;51.438;6.978;2023-12-14T02:30:51;25.77;;;18.00;;
2338;SDS011;1180;51.438;6.978;2023-12-14T02:33:17;25.43;;;15.93;;
2338;SDS011;1180;51.438;6.978;2023-12-14T02:35:43;26.27;;;15.63;;
2338;SDS011;1180;51.438;6.978;2023-12-14T02:38:08;22.33;;;16.37;;
2338;SDS011;1180;51.438;6.978;2023-12-14T02:40:34;26.00;;;16.60;;
2338;SDS011;1180;51.438;6.978;2023-12-14T02:42:59;29.27;;;19.30;;
2338;SDS011;1180;51.438;6.978;2023-12-14T02:45:25;30.83;;;19.10;;
2338;SDS011;1180;51.438;6.978;2023-12-14T02:47:51;25.10;;;17.13;;
2338;SDS011;1180;51.438;6.978;2023-12-14T02:50:19;28.73;;;18.83;;
2338;SDS011;1180;51.438;6.978;2023-12-14T02:52:44;30.17;;;18.47;;
2338;SDS011;1180;51.438;6.978;2023-12-14T02:55:09;25.00;;;15.70;;
2338;SDS011;1180;51.438;6.978;2023-12-14T02:57:35;29.00;;;18.40;;
2338;SDS011;1180;51.438;6.978;2023-12-14T03:00:00;27.13;;;19.17;;
2338;SDS011;1180;51.438;6.978;2023-12-14T03:02:26;28.73;;;19.30;;
2338;SDS011;1180;51.438;6.978;2023-12-14T03:04:51;33.73;;;22.13;;
2338;SDS011;1180;51.438;6.978;2023-12-14T03:07:17;31.90;;;20.73;;
2338;SDS011;1180;51.438;6.978;2023-12-14T03:09:42;37.63;;;20.87;;
2338;SDS011;1180;51.438;6.978;2023-12-14T03:12:09;39.17;;;23.17;;
2338;SDS011;1180;51.438;6.978;2023-12-14T03:14:35;38.33;;;22.80;;
2338;SDS011;1180;51.438;6.978;2023-12-14T03:17:01;30.10;;;18.83;;
2338;SDS011;1180;51.438;6.978;2023-12-14T03:19:27;27.73;;;17.57;;
2338;SDS011;1180;51.438;6.978;2023-12-14T03:21:52;29.83;;;19.63;;
2338;SDS011;1180;51.438;6.978;2023-12-14T03:24:18;39.13;;;21.63;;
2338;SDS011;1180;51.438;6.978;2023-12-14T03:26:43;30.30;;;17.50;;
2338;SDS011;1180;51.438;6.978;2023-12-14T03:29:09;35.50;;;20.00;;
2338;SDS011;1180;51.438;6.978;2023-12-14T03:31:34;42.20;;;20.30;;
2338;SDS011;1180;51.438;6.978;2023-12-14T03:34:00;52.40;;;23.97;;
2338;SDS011;1180;51.438;6.978;2023-12-14T03:36:26;43.07;;;24.90;;
2338;SDS011;1180;51.438;6.978;2023-12-14T03:38:52;43.07;;;22.57;;
2338;SDS011;1180;51.438;6.978;2023-12-14T03:41:18;36.90;;;21.80;;
2338;SDS011;1180;51.438;6.978;2023-12-14T03:43:43;37.10;;;22.43;;
2338;SDS011;1180;51.438;6.978;2023-12-14T03:46:09;36.77;;;20.87;;
2338;SDS011;1180;51.438;6.978;2023-12-14T03:48:35;26.93;;;17.53;;
2338;SDS011;1180;51.438;6.978;2023-12-14T03:51:04;27.23;;;17.47;;
2338;SDS011;1180;51.438;6.978;2023-12-14T03:53:30;31.33;;;17.57;;
2338;SDS011;1180;51.438;6.978;2023-12-14T03:55:59;25.63;;;17.43;;
2338;SDS011;1180;51.438;6.978;2023-12-14T03:58:25;25.77;;;15.70;;
2338;SDS011;1180;51.438;6.978;2023-12-14T04:00:51;19.63;;;13.37;;
2338;SDS011;1180;51.438;6.978;2023-12-14T04:03:17;27.33;;;15.90;;
2338;SDS011;1180;51.438;6.978;2023-12-14T04:05:42;22.33;;;16.30;;
2338;SDS011;1180;51.438;6.978;2023-12-14T04:08:09;24.13;;;14.60;;
2338;SDS011;1180;51.438;6.978;2023-12-14T04:10:36;24.70;;;14.57;;
2338;SDS011;1180;51.438;6.978;2023-12-14T04:13:01;20.77;;;13.50;;
2338;SDS011;1180;51.438;6.978;2023-12-14T04:15:27;23.43;;;14.27;;
2338;SDS011;1180;51.438;6.978;2023-12-14T04:17:53;23.43;;;14.20;;
2338;SDS011;1180;51.438;6.978;2023-12-14T04:20:18;25.73;;;14.70;;
2338;SDS011;1180;51.438;6.978;2023-12-14T04:22:43;31.57;;;17.57;;
2338;SDS011;1180;51.438;6.978;2023-12-14T04:25:09;19.63;;;14.50;;
2338;SDS011;1180;51.438;6.978;2023-12-14T04:27:35;25.33;;;14.33;;
2338;SDS011;1180;51.438;6.978;2023-12-14T04:30:00;20.80;;;13.10;;
2338;SDS011;1180;51.438;6.978;2023-12-14T04:32:25;21.73;;;13.60;;
2338;SDS011;1180;51.438;6.978;2023-12-14T04:34:52;15.80;;;11.43;;
2338;SDS011;1180;51.438;6.978;2023-12-14T04:37:17;23.30;;;13.53;;
2338;SDS011;1180;51.438;6.978;2023-12-14T04:39:42;20.20;;;13.57;;
2338;SDS011;1180;51.438;6.978;2023-12-14T04:42:08;20.73;;;13.13;;
2338;SDS011;1180;51.438;6.978;2023-12-14T04:44:33;18.97;;;12.47;;
2338;SDS011;1180;51.438;6.978;2023-12-14T04:46:59;18.77;;;11.37;;
2338;SDS011;1180;51.438;6.978;2023-12-14T04:49:24;18.53;;;12.20;;
2338;SDS011;1180;51.438;6.978;2023-12-14T04:51:49;15.07;;;9.80;;
2338;SDS011;1180;51.438;6.978;2023-12-14T04:54:15;20.10;;;13.00;;
2338;SDS011;1180;51.438;6.978;2023-12-14T04:56:40;22.30;;;14.60;;
2338;SDS011;1180;51.438;6.978;2023-12-14T04:59:06;22.60;;;12.47;;
2338;SDS011;1180;51.438;6.978;2023-12-14T05:01:32;22.37;;;14.83;;
2338;SDS011;1180;51.438;6.978;2023-12-14T05:03:57;18.60;;;12.97;;
2338;SDS011;1180;51.438;6.978;2023-12-14T05:06:23;27.70;;;15.67;;
2338;SDS011;1180;51.438;6.978;2023-12-14T05:08:48;22.20;;;13.97;;
2338;SDS011;1180;51.438;6.978;2023-12-14T05:11:15;24.03;;;13.87;;
2338;SDS011;1180;51.438;6.978;2023-12-14T05:13:40;18.93;;;12.63;;
2338;SDS011;1180;51.438;6.978;2023-12-14T05:16:06;16.97;;;11.67;;
2338;SDS011;1180;51.438;6.978;2023-12-14T05:18:37;16.87;;;11.60;;
2338;SDS011;1180;51.438;6.978;2023-12-14T05:21:02;19.27;;;13.23;;
2338;SDS011;1180;51.438;6.978;2023-12-14T05:23:28;19.63;;;13.07;;
2338;SDS011;1180;51.438;6.978;2023-12-14T05:25:54;19.53;;;12.90;;
2338;SDS011;1180;51.438;6.978;2023-12-14T05:28:19;23.23;;;12.10;;
2338;SDS011;1180;51.438;6.978;2023-12-14T05:30:45;18.63;;;12.73;;
2338;SDS011;1180;51.438;6.978;2023-12-14T05:33:11;24.67;;;15.30;;
2338;SDS011;1180;51.438;6.978;2023-12-14T05:35:36;24.67;;;15.57;;
2338;SDS011;1180;51.438;6.978;2023-12-14T05:38:02;20.40;;;14.47;;
2338;SDS011;1180;51.438;6.978;2023-12-14T05:40:27;20.90;;;13.10;;
2338;SDS011;1180;51.438;6.978;2023-12-14T05:42:54;20.30;;;13.33;;
2338;SDS011;1180;51.438;6.978;2023-12-14T05:45:20;20.53;;;14.10;;
2338;SDS011;1180;51.438;6.978;2023-12-14T05:47:45;21.90;;;12.43;;
2338;SDS011;1180;51.438;6.978;2023-12-14T05:50:11;21.33;;;12.97;;
2338;SDS011;1180;51.438;6.978;2023-12-14T05:52:37;20.47;;;13.53;;
2338;SDS011;1180;51.438;6.978;2023-12-14T05:55:07;27.40;;;16.77;;
2338;SDS011;1180;51.438;6.978;2023-12-14T05:57:36;24.43;;;14.50;;
2338;SDS011;1180;51.438;6.978;2023-12-14T06:00:06;27.67;;;16.37;;
2338;SDS011;1180;51.438;6.978;2023-12-14T06:02:35;24.17;;;15.43;;
2338;SDS011;1180;51.438;6.978;2023-12-14T06:05:02;25.37;;;15.80;;
2338;SDS011;1180;51.438;6.978;2023-12-14T06:07:28;26.90;;;15.80;;
2338;SDS011;1180;51.438;6.978;2023-12-14T06:09:54;20.80;;;14.70;;
2338;SDS011;1180;51.438;6.978;2023-12-14T06:12:20;26.33;;;15.10;;
2338;SDS011;1180;51.438;6.978;2023-12-14T06:14:46;22.67;;;15.23;;
2338;SDS011;1180;51.438;6.978;2023-12-14T06:17:12;26.23;;;16.80;;
2338;SDS011;1180;51.438;6.978;2023-12-14T06:19:37;22.43;;;14.93;;
2338;SDS011;1180;51.438;6.978;2023-12-14T06:22:03;26.60;;;16.17;;
2338;SDS011;1180;51.438;6.978;2023-12-14T06:24:29;22.10;;;13.30;;
2338;SDS011;1180;51.438;6.978;2023-12-14T06:26:54;21.67;;;15.17;;
2338;SDS011;1180;51.438;6.978;2023-12-14T06:29:20;20.13;;;14.47;;
2338;SDS011;1180;51.438;6.978;2023-12-14T06:31:46;27.93;;;16.07;;
2338;SDS011;1180;51.438;6.978;2023-12-14T06:34:12;28.77;;;16.10;;
2338;SDS011;1180;51.438;6.978;2023-12-14T06:36:41;28.57;;;17.07;;
2338;SDS011;1180;51.438;6.978;2023-12-14T06:39:07;22.30;;;14.70;;
2338;SDS011;1180;51.438;6.978;2023-12-14T06:41:33;25.00;;;15.20;;
2338;SDS011;1180;51.438;6.978;2023-12-14T06:44:00;24.17;;;15.50;;
2338;SDS011;1180;51.438;6.978;2023-12-14T06:46:26;24.83;;;15.00;;
2338;SDS011;1180;51.438;6.978;2023-12-14T06:48:52;27.67;;;16.50;;
2338;SDS011;1180;51.438;6.978;2023-12-14T06:51:19;29.70;;;18.30;;
2338;SDS011;1180;51.438;6.978;2023-12-14T06:53:45;33.37;;;18.97;;
2338;SDS011;1180;51.438;6.978;2023-12-14T06:56:12;32.47;;;21.37;;
2338;SDS011;1180;51.438;6.978;2023-12-14T06:58:39;33.13;;;20.23;;
2338;SDS011;1180;51.438;6.978;2023-12-14T07:01:05;31.70;;;20.37;;
2338;SDS011;1180;51.438;6.978;2023-12-14T07:03:41;32.10;;;19.43;;
2338;SDS011;1180;51.438;6.978;2023-12-14T07:06:15;31.17;;;18.50;;
2338;SDS011;1180;51.438;6.978;2023-12-14T07:08:43;35.63;;;19.77;;
2338;SDS011;1180;51.438;6.978;2023-12-14T07:11:10;29.67;;;18.30;;
2338;SDS011;1180;51.438;6.978;2023-12-14T07:13:36;30.93;;;18.53;;
2338;SDS011;1180;51.438;6.978;2023-12-14T07:16:06;33.77;;;19.80;;
2338;SDS011;1180;51.438;6.978;2023-12-14T07:18:34;34.40;;;20.40;;
2338;SDS011;1180;51.438;6.978;2023-12-14T07:21:00;39.47;;;20.63;;
2338;SDS011;1180;51.438;6.978;2023-12-14T07:23:27;34.70;;;17.17;;
2338;SDS011;1180;51.438;6.978;2023-12-14T07:25:53;26.03;;;15.80;;
2338;SDS011;1180;51.438;6.978;2023-12-14T07:28:19;34.43;;;17.17;;
2338;SDS011;1180;51.438;6.978;2023-12-14T07:30:45;26.40;;;16.60;;
2338;SDS011;1180;51.438;6.978;2023-12-14T07:33:12;27.07;;;15.57;;
2338;SDS011;1180;51.438;6.978;2023-12-14T07:35:39;21.73;;;13.70;;
2338;SDS011;1180;51.438;6.978;2023-12-14T07:38:05;25.53;;;14.53;;
2338;SDS011;1180;51.438;6.978;2023-12-14T07:40:31;17.80;;;13.73;;
2338;SDS011;1180;51.438;6.978;2023-12-14T07:42:57;20.17;;;13.67;;
2338;SDS011;1180;51.438;6.978;2023-12-14T07:45:23;15.13;;;11.37;;
2338;SDS011;1180;51.438;6.978;2023-12-14T07:47:49;19.77;;;12.90;;
2338;SDS011;1180;51.438;6.978;2023-12-14T07:50:16;23.50;;;15.23;;
2338;SDS011;1180;51.438;6.978;2023-12-14T07:52:42;22.30;;;15.73;;
2338;SDS011;1180;51.438;6.978;2023-12-14T07:55:08;23.03;;;16.20;;
2338;SDS011;1180;51.438;6.978;2023-12-14T07:57:34;25.30;;;16.83;;
2338;SDS011;1180;51.438;6.978;2023-12-14T08:00:00;32.13;;;19.63;;
2338;SDS011;1180;51.438;6.978;2023-12-14T08:02:26;25.53;;;16.80;;
2338;SDS011;1180;51.438;6.978;2023-12-14T08:04:53;22.43;;;13.93;;
2338;SDS011;1180;51.438;6.978;2023-12-14T08:07:18;26.70;;;15.70;;
2338;SDS011;1180;51.438;6.978;2023-12-14T08:09:45;26.77;;;17.60;;
2338;SDS011;1180;51.438;6.978;2023-12-14T08:12:11;23.23;;;15.37;;
2338;SDS011;1180;51.438;6.978;2023-12-14T08:14:37;29.23;;;18.60;;
2338;SDS011;1180;51.438;6.978;2023-12-14T08:17:08;29.13;;;19.00;;
2338;SDS011;1180;51.438;6.978;2023-12-14T08:19:34;24.83;;;16.23;;
2338;SDS011;1180;51.438;6.978;2023-12-14T08:22:00;28.17;;;17.40;;
2338;SDS011;1180;51.438;6.978;2023-12-14T08:24:26;33.80;;;19.67;;
2338;SDS011;1180;51.438;6.978;2023-12-14T08:26:52;29.17;;;17.80;;
2338;SDS011;1180;51.438;6.978;2023-12-14T08:29:18;29.83;;;19.63;;
2338;SDS011;1180;51.438;6.978;2023-12-14T08:31:44;34.10;;;19.13;;
2338;SDS011;1180;51.438;6.978;2023-12-14T08:34:10;33.97;;;20.27;;
2338;SDS011;1180;51.438;6.978;2023-12-14T08:36:36;33.23;;;19.53;;
2338;SDS011;1180;51.438;6.978;2023-12-14T08:39:02;33.13;;;19.90;;
2338;SDS011;1180;51.438;6.978;2023-12-14T08:41:29;33.43;;;21.47;;
2338;SDS011;1180;51.438;6.978;2023-12-14T08:43:55;30.20;;;18.43;;
2338;SDS011;1180;51.438;6.978;2023-12-14T08:46:21;29.87;;;19.30;;
2338;SDS011;1180;51.438;6.978;2023-12-14T08:48:48;28.37;;;17.60;;
2338;SDS011;1180;51.438;6.978;2023-12-14T08:51:14;24.07;;;16.50;;
2338;SDS011;1180;51.438;6.978;2023-12-14T08:53:40;26.27;;;17.30;;
2338;SDS011;1180;51.438;6.978;2023-12-14T08:56:06;26.77;;;17.87;;
2338;SDS011;1180;51.438;6.978;2023-12-14T08:58:33;28.57;;;17.17;;
2338;SDS011;1180;51.438;6.978;2023-12-14T09:00:59;26.93;;;17.47;;
2338;SDS011;1180;51.438;6.978;2023-12-14T09:03:25;27.13;;;16.63;;
2338;SDS011;1180;51.438;6.978;2023-12-14T09:05:51;28.37;;;19.00;;
2338;SDS011;1180;51.438;6.978;2023-12-14T09:08:17;26.50;;;17.53;;
2338;SDS011;1180;51.438;6.978;2023-12-14T09:10:43;26.37;;;17.10;;
2338;SDS011;1180;51.438;6.978;2023-12-14T09:13:10;31.73;;;18.20;;
2338;SDS011;1180;51.438;6.978;2023-12-14T09:15:36;27.73;;;16.73;;
2338;SDS011;1180;51.438;6.978;2023-12-14T09:18:02;31.67;;;17.57;;
2338;SDS011;1180;51.438;6.978;2023-12-14T09:20:29;30.37;;;19.77;;
2338;SDS011;1180;51.438;6.978;2023-12-14T09:22:54;33.53;;;19.37;;
2338;SDS011;1180;51.438;6.978;2023-12-14T09:25:20;27.37;;;17.97;;
2338;SDS011;1180;51.438;6.978;2023-12-14T09:27:46;33.50;;;19.30;;
2338;SDS011;1180;51.438;6.978;2023-12-14T09:30:13;30.50;;;19.27;;
2338;SDS011;1180;51.438;6.978;2023-12-14T09:32:39;30.97;;;19.33;;
2338;SDS011;1180;51.438;6.978;2023-12-14T09:35:06;33.10;;;20.73;;
2338;SDS011;1180;51.438;6.978;2023-12-14T09:37:32;29.87;;;18.60;;
2338;SDS011;1180;51.438;6.978;2023-12-14T09:39:59;31.57;;;18.27;;
2338;SDS011;1180;51.438;6.978;2023-12-14T09:42:25;29.40;;;19.57;;
2338;SDS011;1180;51.438;6.978;2023-12-14T09:44:51;35.20;;;20.40;;
2338;SDS011;1180;51.438;6.978;2023-12-14T09:47:18;33.33;;;19.67;;
2338;SDS011;1180;51.438;6.978;2023-12-14T09:49:45;31.47;;;19.97;;
2338;SDS011;1180;51.438;6.978;2023-12-14T09:52:13;32.53;;;19.47;;
2338;SDS011;1180;51.438;6.978;2023-12-14T09:54:39;29.03;;;18.20;;
2338;SDS011;1180;51.438;6.978;2023-12-14T09:57:05;33.43;;;18.80;;
2338;SDS011;1180;51.438;6.978;2023-12-14T09:59:32;27.63;;;18.40;;
2338;SDS011;1180;51.438;6.978;2023-12-14T10:02:16;28.40;;;18.83;;
2338;SDS011;1180;51.438;6.978;2023-12-14T10:04:43;24.10;;;17.17;;
2338;SDS011;1180;51.438;6.978;2023-12-14T10:07:09;26.27;;;18.33;;
2338;SDS011;1180;51.438;6.978;2023-12-14T10:09:36;25.00;;;16.93;;
2338;SDS011;1180;51.438;6.978;2023-12-14T10:12:04;24.40;;;15.53;;
2338;SDS011;1180;51.438;6.978;2023-12-14T10:14:33;26.90;;;16.97;;
2338;SDS011;1180;51.438;6.978;2023-12-14T10:17:02;27.10;;;17.20;;
2338;SDS011;1180;51.438;6.978;2023-12-14T10:19:43;24.70;;;16.43;;
2338;SDS011;1180;51.438;6.978;2023-12-14T10:22:09;25.07;;;17.37;;
2338;SDS011;1180;51.438;6.978;2023-12-14T10:24:35;26.33;;;16.87;;
2338;SDS011;1180;51.438;6.978;2023-12-14T10:27:05;22.07;;;14.77;;
2338;SDS011;1180;51.438;6.978;2023-12-14T10:29:36;21.23;;;14.50;;
2338;SDS011;1180;51.438;6.978;2023-12-14T10:32:04;21.50;;;15.33;;
2338;SDS011;1180;51.438;6.978;2023-12-14T10:34:34;19.70;;;13.50;;
2338;SDS011;1180;51.438;6.978;2023-12-14T10:37:01;19.10;;;14.80;;
2338;SDS011;1180;51.438;6.978;2023-12-14T10:39:30;22.40;;;14.83;;
2338;SDS011;1180;51.438;6.978;2023-12-14T10:41:59;20.17;;;13.80;;
2338;SDS011;1180;51.438;6.978;2023-12-14T10:44:29;19.60;;;12.93;;
2338;SDS011;1180;51.438;6.978;2023-12-14T10:47:00;19.47;;;13.20;;
2338;SDS011;1180;51.438;6.978;2023-12-14T10:49:29;21.47;;;14.00;;
2338;SDS011;1180;51.438;6.978;2023-12-14T10:51:57;18.10;;;12.80;;
2338;SDS011;1180;51.438;6.978;2023-12-14T10:54:25;20.77;;;13.83;;
2338;SDS011;1180;51.438;6.978;2023-12-14T10:56:55;14.57;;;11.60;;
2338;SDS011;1180;51.438;6.978;2023-12-14T10:59:25;17.70;;;13.87;;
2338;SDS011;1180;51.438;6.978;2023-12-14T11:01:51;19.33;;;14.00;;
2338;SDS011;1180;51.438;6.978;2023-12-14T11:04:22;15.87;;;12.13;;
2338;SDS011;1180;51.438;6.978;2023-12-14T11:06:48;16.60;;;12.80;;
2338;SDS011;1180;51.438;6.978;2023-12-14T11:09:16;17.43;;;11.27;;
2338;SDS011;1180;51.438;6.978;2023-12-14T11:14:19;14.87;;;10.80;;
2338;SDS011;1180;51.438;6.978;2023-12-14T11:16:47;17.33;;;10.57;;
2338;SDS011;1180;51.438;6.978;2023-12-14T11:24:21;12.63;;;9.83;;
2338;SDS011;1180;51.438;6.978;2023-12-14T11:26:50;16.03;;;10.53;;
2338;SDS011;1180;51.438;6.978;2023-12-14T11:29:17;12.33;;;8.70;;
2338;SDS011;1180;51.438;6.978;2023-12-14T11:31:44;16.70;;;9.73;;
2338;SDS011;1180;51.438;6.978;2023-12-14T11:34:09;12.67;;;9.00;;
2338;SDS011;1180;51.438;6.978;2023-12-14T11:36:34;11.30;;;8.60;;
2338;SDS011;1180;51.438;6.978;2023-12-14T11:39:03;11.17;;;8.83;;
2338;SDS011;1180;51.438;6.978;2023-12-14T11:41:30;12.57;;;9.10;;
2338;SDS011;1180;51.438;6.978;2023-12-14T11:43:56;13.17;;;9.60;;
2338;SDS011;1180;51.438;6.978;2023-12-14T11:46:21;11.83;;;7.77;;
2338;SDS011;1180;51.438;6.978;2023-12-14T11:48:47;11.73;;;7.90;;
2338;SDS011;1180;51.438;6.978;2023-12-14T11:51:16;11.60;;;8.50;;
2338;SDS011;1180;51.438;6.978;2023-12-14T11:53:43;10.53;;;8.00;;
2338;SDS011;1180;51.438;6.978;2023-12-14T11:56:10;10.30;;;8.57;;
2338;SDS011;1180;51.438;6.978;2023-12-14T11:58:36;13.83;;;9.33;;
2338;SDS011;1180;51.438;6.978;2023-12-14T12:01:14;11.63;;;8.90;;
2338;SDS011;1180;51.438;6.978;2023-12-14T12:03:41;10.57;;;8.40;;
2338;SDS011;1180;51.438;6.978;2023-12-14T12:06:09;11.10;;;8.10;;
2338;SDS011;1180;51.438;6.978;2023-12-14T12:08:45;10.17;;;8.53;;
2338;SDS011;1180;51.438;6.978;2023-12-14T12:11:10;11.07;;;8.10;;
2338;SDS011;1180;51.438;6.978;2023-12-14T12:13:35;14.47;;;8.70;;
2338;SDS011;1180;51.438;6.978;2023-12-14T12:16:01;11.80;;;9.33;;
2338;SDS011;1180;51.438;6.978;2023-12-14T12:18:26;10.87;;;7.77;;
2338;SDS011;1180;51.438;6.978;2023-12-14T12:20:52;9.50;;;7.03;;
2338;SDS011;1180;51.438;6.978;2023-12-14T12:23:18;9.80;;;7.00;;
2338;SDS011;1180;51.438;6.978;2023-12-14T12:25:43;10.63;;;7.80;;
2338;SDS011;1180;51.438;6.978;2023-12-14T12:28:09;11.60;;;8.03;;
2338;SDS011;1180;51.438;6.978;2023-12-14T12:30:34;11.20;;;8.33;;
2338;SDS011;1180;51.438;6.978;2023-12-14T12:32:59;9.63;;;8.30;;
2338;SDS011;1180;51.438;6.978;2023-12-14T12:35:25;11.33;;;8.63;;
2338;SDS011;1180;51.438;6.978;2023-12-14T12:37:51;11.20;;;6.90;;
2338;SDS011;1180;51.438;6.978;2023-12-14T12:40:20;10.53;;;7.80;;
2338;SDS011;1180;51.438;6.978;2023-12-14T12:42:46;11.17;;;7.03;;
2338;SDS011;1180;51.438;6.978;2023-12-14T12:45:15;10.80;;;7.77;;
2338;SDS011;1180;51.438;6.978;2023-12-14T12:47:47;11.10;;;8.53;;
2338;SDS011;1180;51.438;6.978;2023-12-14T12:50:12;9.17;;;6.70;;
2338;SDS011;1180;51.438;6.978;2023-12-14T12:52:38;10.57;;;7.40;;
2338;SDS011;1180;51.438;6.978;2023-12-14T12:55:05;9.23;;;6.50;;
2338;SDS011;1180;51.438;6.978;2023-12-14T12:57:31;9.63;;;7.27;;
2338;SDS011;1180;51.438;6.978;2023-12-14T12:59:56;9.50;;;7.60;;
2338;SDS011;1180;51.438;6.978;2023-12-14T13:02:22;12.40;;;8.50;;
2338;SDS011;1180;51.438;6.978;2023-12-14T13:04:48;8.40;;;6.50;;
2338;SDS011;1180;51.438;6.978;2023-12-14T13:07:13;10.70;;;7.73;;
2338;SDS011;1180;51.438;6.978;2023-12-14T13:09:39;12.40;;;7.80;;
2338;SDS011;1180;51.438;6.978;2023-12-14T13:12:04;9.40;;;6.80;;
2338;SDS011;1180;51.438;6.978;2023-12-14T13:14:30;9.30;;;6.50;;
2338;SDS011;1180;51.438;6.978;2023-12-14T13:16:56;10.17;;;6.60;;
2338;SDS011;1180;51.438;6.978;2023-12-14T13:19:23;11.17;;;8.37;;
2338;SDS011;1180;51.438;6.978;2023-12-14T13:21:49;9.70;;;6.87;;
2338;SDS011;1180;51.438;6.978;2023-12-14T13:24:14;8.73;;;6.57;;
2338;SDS011;1180;51.438;6.978;2023-12-14T13:26:39;9.07;;;7.10;;
2338;SDS011;1180;51.438;6.978;2023-12-14T13:29:05;10.57;;;6.77;;
2338;SDS011;1180;51.438;6.978;2023-12-14T13:31:30;7.90;;;6.37;;
2338;SDS011;1180;51.438;6.978;2023-12-14T13:33:55;9.63;;;6.70;;
2338;SDS011;1180;51.438;6.978;2023-12-14T13:36:21;12.37;;;8.27;;
2338;SDS011;1180;51.438;6.978;2023-12-14T13:38:46;8.20;;;6.50;;
2338;SDS011;1180;51.438;6.978;2023-12-14T13:41:12;9.50;;;6.60;;
2338;SDS011;1180;51.438;6.978;2023-12-14T13:43:37;7.63;;;5.83;;
2338;SDS011;1180;51.438;6.978;2023-12-14T13:46:03;7.83;;;6.40;;
2338;SDS011;1180;51.438;6.978;2023-12-14T13:48:28;8.60;;;6.70;;
2338;SDS011;1180;51.438;6.978;2023-12-14T13:50:54;10.10;;;6.27;;
2338;SDS011;1180;51.438;6.978;2023-12-14T13:53:20;10.53;;;7.20;;
2338;SDS011;1180;51.438;6.978;2023-12-14T13:55:46;8.47;;;7.13;;
2338;SDS011;1180;51.438;6.978;2023-12-14T13:58:13;9.63;;;5.60;;
2338;SDS011;1180;51.438;6.978;2023-12-14T14:00:39;8.00;;;6.43;;
2338;SDS011;1180;51.438;6.978;2023-12-14T14:03:05;8.50;;;6.73;;
2338;SDS011;1180;51.438;6.978;2023-12-14T14:05:30;8.27;;;6.23;;
2338;SDS011;1180;51.438;6.978;2023-12-14T14:07:56;9.80;;;7.37;;
2338;SDS011;1180;51.438;6.978;2023-12-14T14:10:22;11.93;;;7.80;;
2338;SDS011;1180;51.438;6.978;2023-12-14T14:12:48;9.83;;;7.27;;
2338;SDS011;1180;51.438;6.978;2023-12-14T14:15:13;10.43;;;7.53;;
2338;SDS011;1180;51.438;6.978;2023-12-14T14:17:39;8.20;;;6.70;;
2338;SDS011;1180;51.438;6.978;2023-12-14T14:20:04;9.17;;;7.70;;
2338;SDS011;1180;51.438;6.978;2023-12-14T14:22:31;9.77;;;7.13;;
2338;SDS011;1180;51.438;6.978;2023-12-14T14:24:57;12.27;;;8.27;;
2338;SDS011;1180;51.438;6.978;2023-12-14T14:27:22;10.70;;;7.80;;
2338;SDS011;1180;51.438;6.978;2023-12-14T14:29:49;9.07;;;6.77;;
2338;SDS011;1180;51.438;6.978;2023-12-14T14:32:14;12.40;;;7.80;;
2338;SDS011;1180;51.438;6.978;2023-12-14T14:34:40;10.20;;;7.17;;
2338;SDS011;1180;51.438;6.978;2023-12-14T14:37:06;10.77;;;7.97;;
2338;SDS011;1180;51.438;6.978;2023-12-14T14:39:31;9.43;;;6.93;;
2338;SDS011;1180;51.438;6.978;2023-12-14T14:41:56;13.63;;;8.50;;
2338;SDS011;1180;51.438;6.978;2023-12-14T14:44:22;14.77;;;9.00;;
2338;SDS011;1180;51.438;6.978;2023-12-14T14:46:47;12.60;;;8.40;;
2338;SDS011;1180;51.438;6.978;2023-12-14T14:49:12;12.80;;;8.50;;
2338;SDS011;1180;51.438;6.978;2023-12-14T14:51:38;10.63;;;8.40;;
2338;SDS011;1180;51.438;6.978;2023-12-14T14:54:03;12.83;;;8.53;;
2338;SDS011;1180;51.438;6.978;2023-12-14T14:56:28;11.23;;;8.30;;
2338;SDS011;1180;51.438;6.978;2023-12-14T14:58:54;9.63;;;7.23;;